sensor_id;sensor_type;location;lat;lon;timestamp;P1;P2;P0
73973;PMS5003;62336;-26.094;27.994;2023-07-20T00:00:37;13;12;
73973;PMS5003;62336;-26.094;27.994;2023-07-20T00:05:28;16;16;
73973;PMS5003;62336;-26.094;27.994;2023-07-20T00:07:54;22;21;
73973;PMS5003;62336;-26.094;27.994;2023-07-20T00:10:19;18;16;
73973;PMS5003;62336;-26.094;27.994;2023-07-20T00:12:44;21;20;
73973;PMS5003;62336;-26.094;27.994;2023-07-20T00:15:10;21;20;
73973;PMS5003;62336;-26.094;27.994;2023-07-20T00:17:35;21;20;
73973;PMS5003;62336;-26.094;27.994;2023-07-20T00:20:01;26;24;
73973;PMS5003;62336;-26.094;27.994;2023-07-20T00:22:27;29;29;
73973;PMS5003;62336;-26.094;27.994;2023-07-20T00:24:51;35;32;
73973;PMS5003;62336;-26.094;27.994;2023-07-20T00:27:17;30;28;
73973;PMS5003;62336;-26.094;27.994;2023-07-20T00:29:43;31;28;
73973;PMS5003;62336;-26.094;27.994;2023-07-20T00:32:08;35;33;
73973;PMS5003;62336;-26.094;27.994;2023-07-20T00:34:34;29;28;
73973;PMS5003;62336;-26.094;27.994;2023-07-20T00:36:59;29;28;
73973;PMS5003;62336;-26.094;27.994;2023-07-20T00:39:25;26;26;
73973;PMS5003;62336;-26.094;27.994;2023-07-20T00:41:50;34;30;
73973;PMS5003;62336;-26.094;27.994;2023-07-20T00:44:16;34;33;
73973;PMS5003;62336;-26.094;27.994;2023-07-20T00:46:42;34;30;
73973;PMS5003;62336;-26.094;27.994;2023-07-20T00:49:07;29;29;
73973;PMS5003;62336;-26.094;27.994;2023-07-20T00:51:32;33;32;
73973;PMS5003;62336;-26.094;27.994;2023-07-20T00:53:57;32;30;
73973;PMS5003;62336;-26.094;27.994;2023-07-20T00:56:22;32;31;
73973;PMS5003;62336;-26.094;27.994;2023-07-20T00:58:47;33;33;
73973;PMS5003;62336;-26.094;27.994;2023-07-20T01:01:12;31;30;
73973;PMS5003;62336;-26.094;27.994;2023-07-20T01:03:38;26;26;
73973;PMS5003;62336;-26.094;27.994;2023-07-20T01:06:06;26;26;
73973;PMS5003;62336;-26.094;27.994;2023-07-20T01:08:31;31;30;
73973;PMS5003;62336;-26.094;27.994;2023-07-20T01:10:56;35;31;
73973;PMS5003;62336;-26.094;27.994;2023-07-20T01:13:20;27;27;
73973;PMS5003;62336;-26.094;27.994;2023-07-20T01:15:49;32;29;
73973;PMS5003;62336;-26.094;27.994;2023-07-20T01:18:10;32;31;
73973;PMS5003;62336;-26.094;27.994;2023-07-20T01:20:36;36;33;
73973;PMS5003;62336;-26.094;27.994;2023-07-20T01:28:00;35;33;
73973;PMS5003;62336;-26.094;27.994;2023-07-20T01:30:28;38;34;
73973;PMS5003;62336;-26.094;27.994;2023-07-20T01:32:44;49;45;
73973;PMS5003;62336;-26.094;27.994;2023-07-20T01:35:10;55;53;
73973;PMS5003;62336;-26.094;27.994;2023-07-20T01:37:35;59;56;
73973;PMS5003;62336;-26.094;27.994;2023-07-20T01:40:01;61;59;
73973;PMS5003;62336;-26.094;27.994;2023-07-20T01:42:26;69;65;
73973;PMS5003;62336;-26.094;27.994;2023-07-20T01:44:52;75;70;
73973;PMS5003;62336;-26.094;27.994;2023-07-20T01:47:18;73;67;
73973;PMS5003;62336;-26.094;27.994;2023-07-20T01:49:44;70;66;
73973;PMS5003;62336;-26.094;27.994;2023-07-20T01:52:09;76;72;
73973;PMS5003;62336;-26.094;27.994;2023-07-20T01:54:34;77;73;
73973;PMS5003;62336;-26.094;27.994;2023-07-20T01:57:00;80;73;
73973;PMS5003;62336;-26.094;27.994;2023-07-20T01:59:26;75;72;
73973;PMS5003;62336;-26.094;27.994;2023-07-20T02:01:51;80;78;
73973;PMS5003;62336;-26.094;27.994;2023-07-20T02:04:17;83;76;
73973;PMS5003;62336;-26.094;27.994;2023-07-20T02:06:42;76;72;
73973;PMS5003;62336;-26.094;27.994;2023-07-20T02:09:07;80;72;
73973;PMS5003;62336;-26.094;27.994;2023-07-20T02:11:33;77;73;
73973;PMS5003;62336;-26.094;27.994;2023-07-20T02:13:58;84;78;
73973;PMS5003;62336;-26.094;27.994;2023-07-20T02:16:24;83;75;
73973;PMS5003;62336;-26.094;27.994;2023-07-20T02:18:49;80;76;
73973;PMS5003;62336;-26.094;27.994;2023-07-20T02:21:15;78;73;
73973;PMS5003;62336;-26.094;27.994;2023-07-20T02:23:41;81;77;
73973;PMS5003;62336;-26.094;27.994;2023-07-20T02:26:06;81;77;
73973;PMS5003;62336;-26.094;27.994;2023-07-20T02:28:31;84;78;
73973;PMS5003;62336;-26.094;27.994;2023-07-20T02:30:56;91;88;
73973;PMS5003;62336;-26.094;27.994;2023-07-20T02:33:22;85;81;
73973;PMS5003;62336;-26.094;27.994;2023-07-20T02:35:47;97;84;
73973;PMS5003;62336;-26.094;27.994;2023-07-20T02:38:13;90;88;
73973;PMS5003;62336;-26.094;27.994;2023-07-20T02:40:38;88;84;
73973;PMS5003;62336;-26.094;27.994;2023-07-20T02:43:04;92;84;
73973;PMS5003;62336;-26.094;27.994;2023-07-20T02:45:29;87;83;
73973;PMS5003;62336;-26.094;27.994;2023-07-20T02:47:55;81;77;
73973;PMS5003;62336;-26.094;27.994;2023-07-20T02:50:21;93;89;
73973;PMS5003;62336;-26.094;27.994;2023-07-20T02:52:46;87;82;
73973;PMS5003;62336;-26.094;27.994;2023-07-20T02:55:12;92;89;
73973;PMS5003;62336;-26.094;27.994;2023-07-20T02:57:37;94;87;
73973;PMS5003;62336;-26.094;27.994;2023-07-20T03:00:03;86;82;
73973;PMS5003;62336;-26.094;27.994;2023-07-20T03:02:29;87;81;
73973;PMS5003;62336;-26.094;27.994;2023-07-20T03:04:53;84;79;
73973;PMS5003;62336;-26.094;27.994;2023-07-20T03:07:18;88;80;
73973;PMS5003;62336;-26.094;27.994;2023-07-20T03:09:44;93;86;
73973;PMS5003;62336;-26.094;27.994;2023-07-20T03:12:10;95;89;
73973;PMS5003;62336;-26.094;27.994;2023-07-20T03:14:35;96;90;
73973;PMS5003;62336;-26.094;27.994;2023-07-20T03:17:00;85;81;
73973;PMS5003;62336;-26.094;27.994;2023-07-20T03:19:25;90;86;
73973;PMS5003;62336;-26.094;27.994;2023-07-20T03:21:52;95;89;
73973;PMS5003;62336;-26.094;27.994;2023-07-20T03:24:17;93;88;
73973;PMS5003;62336;-26.094;27.994;2023-07-20T03:26:42;88;83;
73973;PMS5003;62336;-26.094;27.994;2023-07-20T03:29:08;93;87;
73973;PMS5003;62336;-26.094;27.994;2023-07-20T03:31:34;92;85;
73973;PMS5003;62336;-26.094;27.994;2023-07-20T03:33:59;89;84;
73973;PMS5003;62336;-26.094;27.994;2023-07-20T03:36:25;94;91;
73973;PMS5003;62336;-26.094;27.994;2023-07-20T03:38:50;84;83;
73973;PMS5003;62336;-26.094;27.994;2023-07-20T03:41:16;104;95;
73973;PMS5003;62336;-26.094;27.994;2023-07-20T03:43:41;94;88;
73973;PMS5003;62336;-26.094;27.994;2023-07-20T03:46:06;102;92;
73973;PMS5003;62336;-26.094;27.994;2023-07-20T03:48:33;97;87;
73973;PMS5003;62336;-26.094;27.994;2023-07-20T03:50:57;91;87;
73973;PMS5003;62336;-26.094;27.994;2023-07-20T03:53:22;91;87;
73973;PMS5003;62336;-26.094;27.994;2023-07-20T03:55:48;101;91;
73973;PMS5003;62336;-26.094;27.994;2023-07-20T03:58:13;90;87;
73973;PMS5003;62336;-26.094;27.994;2023-07-20T04:00:40;89;84;
73973;PMS5003;62336;-26.094;27.994;2023-07-20T04:03:05;93;90;
73973;PMS5003;62336;-26.094;27.994;2023-07-20T04:05:30;94;89;
73973;PMS5003;62336;-26.094;27.994;2023-07-20T04:07:55;91;85;
73973;PMS5003;62336;-26.094;27.994;2023-07-20T04:10:21;90;87;
73973;PMS5003;62336;-26.094;27.994;2023-07-20T04:12:46;100;94;
73973;PMS5003;62336;-26.094;27.994;2023-07-20T04:15:11;102;96;
73973;PMS5003;62336;-26.094;27.994;2023-07-20T04:17:37;102;91;
73973;PMS5003;62336;-26.094;27.994;2023-07-20T04:20:02;101;94;
73973;PMS5003;62336;-26.094;27.994;2023-07-20T04:22:28;104;98;
73973;PMS5003;62336;-26.094;27.994;2023-07-20T04:24:53;103;94;
73973;PMS5003;62336;-26.094;27.994;2023-07-20T04:27:18;108;102;
73973;PMS5003;62336;-26.094;27.994;2023-07-20T04:29:44;101;95;
73973;PMS5003;62336;-26.094;27.994;2023-07-20T04:32:09;106;98;
73973;PMS5003;62336;-26.094;27.994;2023-07-20T04:34:34;115;107;
73973;PMS5003;62336;-26.094;27.994;2023-07-20T04:37:00;111;100;
73973;PMS5003;62336;-26.094;27.994;2023-07-20T04:39:25;116;110;
73973;PMS5003;62336;-26.094;27.994;2023-07-20T04:41:51;114;102;
73973;PMS5003;62336;-26.094;27.994;2023-07-20T04:44:16;116;108;
73973;PMS5003;62336;-26.094;27.994;2023-07-20T04:46:41;115;109;
73973;PMS5003;62336;-26.094;27.994;2023-07-20T04:49:06;109;105;
73973;PMS5003;62336;-26.094;27.994;2023-07-20T04:51:32;115;107;
73973;PMS5003;62336;-26.094;27.994;2023-07-20T04:53:57;112;106;
73973;PMS5003;62336;-26.094;27.994;2023-07-20T04:56:23;115;109;
73973;PMS5003;62336;-26.094;27.994;2023-07-20T04:58:48;114;105;
73973;PMS5003;62336;-26.094;27.994;2023-07-20T05:01:14;127;116;
73973;PMS5003;62336;-26.094;27.994;2023-07-20T05:03:39;129;122;
73973;PMS5003;62336;-26.094;27.994;2023-07-20T05:06:04;132;124;
73973;PMS5003;62336;-26.094;27.994;2023-07-20T05:08:29;139;130;
73973;PMS5003;62336;-26.094;27.994;2023-07-20T05:10:55;130;123;
73973;PMS5003;62336;-26.094;27.994;2023-07-20T05:13:20;132;122;
73973;PMS5003;62336;-26.094;27.994;2023-07-20T05:15:45;130;123;
73973;PMS5003;62336;-26.094;27.994;2023-07-20T05:18:11;121;116;
73973;PMS5003;62336;-26.094;27.994;2023-07-20T05:20:36;127;120;
73973;PMS5003;62336;-26.094;27.994;2023-07-20T05:23:02;127;113;
73973;PMS5003;62336;-26.094;27.994;2023-07-20T05:25:28;123;116;
73973;PMS5003;62336;-26.094;27.994;2023-07-20T05:27:52;123;115;
73973;PMS5003;62336;-26.094;27.994;2023-07-20T05:30:18;130;120;
73973;PMS5003;62336;-26.094;27.994;2023-07-20T05:32:43;134;130;
73973;PMS5003;62336;-26.094;27.994;2023-07-20T05:35:09;133;122;
73973;PMS5003;62336;-26.094;27.994;2023-07-20T05:37:34;124;114;
73973;PMS5003;62336;-26.094;27.994;2023-07-20T05:39:59;127;118;
73973;PMS5003;62336;-26.094;27.994;2023-07-20T05:42:25;129;120;
73973;PMS5003;62336;-26.094;27.994;2023-07-20T05:44:50;123;115;
73973;PMS5003;62336;-26.094;27.994;2023-07-20T05:47:15;122;113;
73973;PMS5003;62336;-26.094;27.994;2023-07-20T05:49:41;124;119;
73973;PMS5003;62336;-26.094;27.994;2023-07-20T05:52:06;121;111;
73973;PMS5003;62336;-26.094;27.994;2023-07-20T05:54:32;126;115;
73973;PMS5003;62336;-26.094;27.994;2023-07-20T05:56:58;119;113;
73973;PMS5003;62336;-26.094;27.994;2023-07-20T05:59:24;117;107;
73973;PMS5003;62336;-26.094;27.994;2023-07-20T06:01:49;111;107;
73973;PMS5003;62336;-26.094;27.994;2023-07-20T06:04:14;105;98;
73973;PMS5003;62336;-26.094;27.994;2023-07-20T06:06:40;240;173;
73973;PMS5003;62336;-26.094;27.994;2023-07-20T06:09:05;131;114;
73973;PMS5003;62336;-26.094;27.994;2023-07-20T06:11:31;118;108;
73973;PMS5003;62336;-26.094;27.994;2023-07-20T06:13:56;116;107;
73973;PMS5003;62336;-26.094;27.994;2023-07-20T06:16:22;110;108;
73973;PMS5003;62336;-26.094;27.994;2023-07-20T06:18:47;114;106;
73973;PMS5003;62336;-26.094;27.994;2023-07-20T06:21:12;110;104;
73973;PMS5003;62336;-26.094;27.994;2023-07-20T06:23:38;112;105;
73973;PMS5003;62336;-26.094;27.994;2023-07-20T06:26:05;112;103;
73973;PMS5003;62336;-26.094;27.994;2023-07-20T06:28:29;113;101;
73973;PMS5003;62336;-26.094;27.994;2023-07-20T06:33:20;105;101;
73973;PMS5003;62336;-26.094;27.994;2023-07-20T06:35:45;103;95;
73973;PMS5003;62336;-26.094;27.994;2023-07-20T06:38:11;103;97;
73973;PMS5003;62336;-26.094;27.994;2023-07-20T06:40:35;104;94;
73973;PMS5003;62336;-26.094;27.994;2023-07-20T06:43:01;102;99;
73973;PMS5003;62336;-26.094;27.994;2023-07-20T06:45:26;98;94;
73973;PMS5003;62336;-26.094;27.994;2023-07-20T06:47:51;103;95;
73973;PMS5003;62336;-26.094;27.994;2023-07-20T06:50:17;102;96;
73973;PMS5003;62336;-26.094;27.994;2023-07-20T06:52:42;109;100;
73973;PMS5003;62336;-26.094;27.994;2023-07-20T06:55:08;99;94;
73973;PMS5003;62336;-26.094;27.994;2023-07-20T06:57:33;115;109;
73973;PMS5003;62336;-26.094;27.994;2023-07-20T06:59:59;94;91;
73973;PMS5003;62336;-26.094;27.994;2023-07-20T07:02:24;94;90;
73973;PMS5003;62336;-26.094;27.994;2023-07-20T07:04:50;105;97;
73973;PMS5003;62336;-26.094;27.994;2023-07-20T07:07:15;113;104;
73973;PMS5003;62336;-26.094;27.994;2023-07-20T07:09:41;105;96;
73973;PMS5003;62336;-26.094;27.994;2023-07-20T07:12:08;94;90;
73973;PMS5003;62336;-26.094;27.994;2023-07-20T07:14:33;104;95;
73973;PMS5003;62336;-26.094;27.994;2023-07-20T07:16:58;95;84;
73973;PMS5003;62336;-26.094;27.994;2023-07-20T07:19:23;99;92;
73973;PMS5003;62336;-26.094;27.994;2023-07-20T07:21:48;84;79;
73973;PMS5003;62336;-26.094;27.994;2023-07-20T07:24:15;98;86;
73973;PMS5003;62336;-26.094;27.994;2023-07-20T07:26:40;90;86;
73973;PMS5003;62336;-26.094;27.994;2023-07-20T07:29:05;83;80;
73973;PMS5003;62336;-26.094;27.994;2023-07-20T07:31:33;91;80;
73973;PMS5003;62336;-26.094;27.994;2023-07-20T07:33:56;93;82;
73973;PMS5003;62336;-26.094;27.994;2023-07-20T07:36:22;86;82;
73973;PMS5003;62336;-26.094;27.994;2023-07-20T07:38:47;84;79;
73973;PMS5003;62336;-26.094;27.994;2023-07-20T07:41:14;79;76;
73973;PMS5003;62336;-26.094;27.994;2023-07-20T07:43:39;85;76;
73973;PMS5003;62336;-26.094;27.994;2023-07-20T07:46:05;74;68;
73973;PMS5003;62336;-26.094;27.994;2023-07-20T07:48:31;69;66;
73973;PMS5003;62336;-26.094;27.994;2023-07-20T07:50:57;66;63;
73973;PMS5003;62336;-26.094;27.994;2023-07-20T07:53:21;69;64;
73973;PMS5003;62336;-26.094;27.994;2023-07-20T07:55:47;68;67;
73973;PMS5003;62336;-26.094;27.994;2023-07-20T07:58:12;64;59;
73973;PMS5003;62336;-26.094;27.994;2023-07-20T08:00:37;64;62;
73973;PMS5003;62336;-26.094;27.994;2023-07-20T08:03:03;70;65;
73973;PMS5003;62336;-26.094;27.994;2023-07-20T08:05:35;66;62;
73973;PMS5003;62336;-26.094;27.994;2023-07-20T08:07:54;68;64;
73973;PMS5003;62336;-26.094;27.994;2023-07-20T08:10:19;64;61;
73973;PMS5003;62336;-26.094;27.994;2023-07-20T08:12:45;65;62;
73973;PMS5003;62336;-26.094;27.994;2023-07-20T08:15:11;61;61;
73973;PMS5003;62336;-26.094;27.994;2023-07-20T08:17:35;61;58;
73973;PMS5003;62336;-26.094;27.994;2023-07-20T08:20:01;56;53;
73973;PMS5003;62336;-26.094;27.994;2023-07-20T08:22:27;58;55;
73973;PMS5003;62336;-26.094;27.994;2023-07-20T08:24:52;63;56;
73973;PMS5003;62336;-26.094;27.994;2023-07-20T08:27:17;64;61;
73973;PMS5003;62336;-26.094;27.994;2023-07-20T08:29:42;68;63;
73973;PMS5003;62336;-26.094;27.994;2023-07-20T08:32:08;79;73;
73973;PMS5003;62336;-26.094;27.994;2023-07-20T08:34:33;66;61;
73973;PMS5003;62336;-26.094;27.994;2023-07-20T08:36:59;68;65;
73973;PMS5003;62336;-26.094;27.994;2023-07-20T08:39:25;55;54;
73973;PMS5003;62336;-26.094;27.994;2023-07-20T08:41:50;57;55;
73973;PMS5003;62336;-26.094;27.994;2023-07-20T08:44:15;64;61;
73973;PMS5003;62336;-26.094;27.994;2023-07-20T08:46:40;62;58;
73973;PMS5003;62336;-26.094;27.994;2023-07-20T08:49:06;56;53;
73973;PMS5003;62336;-26.094;27.994;2023-07-20T08:51:32;60;59;
73973;PMS5003;62336;-26.094;27.994;2023-07-20T08:53:57;61;57;
73973;PMS5003;62336;-26.094;27.994;2023-07-20T08:56:21;61;58;
73973;PMS5003;62336;-26.094;27.994;2023-07-20T08:58:47;66;59;
73973;PMS5003;62336;-26.094;27.994;2023-07-20T09:01:12;59;52;
73973;PMS5003;62336;-26.094;27.994;2023-07-20T09:03:37;64;60;
73973;PMS5003;62336;-26.094;27.994;2023-07-20T09:06:03;63;55;
73973;PMS5003;62336;-26.094;27.994;2023-07-20T09:08:28;54;53;
73973;PMS5003;62336;-26.094;27.994;2023-07-20T09:10:53;66;61;
73973;PMS5003;62336;-26.094;27.994;2023-07-20T09:13:19;69;62;
73973;PMS5003;62336;-26.094;27.994;2023-07-20T09:15:46;66;60;
73973;PMS5003;62336;-26.094;27.994;2023-07-20T09:18:09;61;58;
73973;PMS5003;62336;-26.094;27.994;2023-07-20T09:20:35;67;59;
73973;PMS5003;62336;-26.094;27.994;2023-07-20T09:23:04;64;55;
73973;PMS5003;62336;-26.094;27.994;2023-07-20T09:25:27;56;55;
73973;PMS5003;62336;-26.094;27.994;2023-07-20T09:27:52;53;52;
73973;PMS5003;62336;-26.094;27.994;2023-07-20T09:30:18;57;55;
73973;PMS5003;62336;-26.094;27.994;2023-07-20T09:32:43;55;54;
73973;PMS5003;62336;-26.094;27.994;2023-07-20T09:35:12;60;58;
73973;PMS5003;62336;-26.094;27.994;2023-07-20T09:37:34;66;61;
73973;PMS5003;62336;-26.094;27.994;2023-07-20T09:40:00;63;55;
73973;PMS5003;62336;-26.094;27.994;2023-07-20T09:42:25;59;57;
73973;PMS5003;62336;-26.094;27.994;2023-07-20T09:44:50;54;52;
73973;PMS5003;62336;-26.094;27.994;2023-07-20T09:49:41;55;53;
73973;PMS5003;62336;-26.094;27.994;2023-07-20T09:52:07;58;57;
73973;PMS5003;62336;-26.094;27.994;2023-07-20T09:54:32;51;48;
73973;PMS5003;62336;-26.094;27.994;2023-07-20T09:56:57;55;52;
73973;PMS5003;62336;-26.094;27.994;2023-07-20T09:59:22;55;53;
73973;PMS5003;62336;-26.094;27.994;2023-07-20T10:01:47;52;49;
73973;PMS5003;62336;-26.094;27.994;2023-07-20T10:04:13;52;50;
73973;PMS5003;62336;-26.094;27.994;2023-07-20T10:06:41;53;49;
73973;PMS5003;62336;-26.094;27.994;2023-07-20T10:09:05;50;49;
73973;PMS5003;62336;-26.094;27.994;2023-07-20T10:11:32;55;53;
73973;PMS5003;62336;-26.094;27.994;2023-07-20T10:13:56;54;51;
73973;PMS5003;62336;-26.094;27.994;2023-07-20T10:16:22;56;55;
73973;PMS5003;62336;-26.094;27.994;2023-07-20T10:18:49;53;50;
73973;PMS5003;62336;-26.094;27.994;2023-07-20T10:21:12;49;46;
73973;PMS5003;62336;-26.094;27.994;2023-07-20T10:23:38;56;51;
73973;PMS5003;62336;-26.094;27.994;2023-07-20T10:26:03;56;53;
73973;PMS5003;62336;-26.094;27.994;2023-07-20T10:28:28;50;48;
73973;PMS5003;62336;-26.094;27.994;2023-07-20T10:30:53;59;57;
73973;PMS5003;62336;-26.094;27.994;2023-07-20T10:33:18;53;49;
73973;PMS5003;62336;-26.094;27.994;2023-07-20T10:35:52;56;54;
73973;PMS5003;62336;-26.094;27.994;2023-07-20T10:38:09;53;49;
73973;PMS5003;62336;-26.094;27.994;2023-07-20T10:40:37;59;53;
73973;PMS5003;62336;-26.094;27.994;2023-07-20T10:43:01;48;48;
73973;PMS5003;62336;-26.094;27.994;2023-07-20T10:47:50;44;41;
73973;PMS5003;62336;-26.094;27.994;2023-07-20T10:50:15;47;46;
73973;PMS5003;62336;-26.094;27.994;2023-07-20T10:52:41;52;48;
73973;PMS5003;62336;-26.094;27.994;2023-07-20T10:57:32;49;44;
73973;PMS5003;62336;-26.094;27.994;2023-07-20T11:02:23;47;43;
73973;PMS5003;62336;-26.094;27.994;2023-07-20T11:04:49;42;41;
73973;PMS5003;62336;-26.094;27.994;2023-07-20T11:07:15;40;38;
73973;PMS5003;62336;-26.094;27.994;2023-07-20T11:09:40;42;37;
73973;PMS5003;62336;-26.094;27.994;2023-07-20T11:12:09;42;41;
73973;PMS5003;62336;-26.094;27.994;2023-07-20T11:14:31;43;42;
73973;PMS5003;62336;-26.094;27.994;2023-07-20T11:16:57;46;42;
73973;PMS5003;62336;-26.094;27.994;2023-07-20T11:19:22;42;39;
73973;PMS5003;62336;-26.094;27.994;2023-07-20T11:21:49;46;42;
73973;PMS5003;62336;-26.094;27.994;2023-07-20T11:24:13;42;41;
73973;PMS5003;62336;-26.094;27.994;2023-07-20T11:26:42;44;44;
73973;PMS5003;62336;-26.094;27.994;2023-07-20T11:29:04;49;46;
73973;PMS5003;62336;-26.094;27.994;2023-07-20T11:31:28;44;41;
73973;PMS5003;62336;-26.094;27.994;2023-07-20T11:33:54;40;37;
73973;PMS5003;62336;-26.094;27.994;2023-07-20T11:36:20;40;39;
73973;PMS5003;62336;-26.094;27.994;2023-07-20T11:38:45;40;35;
73973;PMS5003;62336;-26.094;27.994;2023-07-20T11:41:11;41;39;
73973;PMS5003;62336;-26.094;27.994;2023-07-20T11:43:37;40;38;
73973;PMS5003;62336;-26.094;27.994;2023-07-20T11:46:02;40;36;
73973;PMS5003;62336;-26.094;27.994;2023-07-20T11:48:27;43;40;
73973;PMS5003;62336;-26.094;27.994;2023-07-20T11:50:52;50;42;
73973;PMS5003;62336;-26.094;27.994;2023-07-20T11:53:18;45;43;
73973;PMS5003;62336;-26.094;27.994;2023-07-20T11:55:43;33;31;
73973;PMS5003;62336;-26.094;27.994;2023-07-20T11:58:09;35;34;
73973;PMS5003;62336;-26.094;27.994;2023-07-20T12:00:34;40;37;
73973;PMS5003;62336;-26.094;27.994;2023-07-20T12:02:59;39;38;
73973;PMS5003;62336;-26.094;27.994;2023-07-20T12:05:25;35;35;
73973;PMS5003;62336;-26.094;27.994;2023-07-20T12:07:50;37;36;
73973;PMS5003;62336;-26.094;27.994;2023-07-20T12:10:15;44;40;
73973;PMS5003;62336;-26.094;27.994;2023-07-20T12:12:41;36;35;
73973;PMS5003;62336;-26.094;27.994;2023-07-20T12:15:13;40;38;
73973;PMS5003;62336;-26.094;27.994;2023-07-20T12:17:32;36;35;
73973;PMS5003;62336;-26.094;27.994;2023-07-20T12:19:57;36;33;
73973;PMS5003;62336;-26.094;27.994;2023-07-20T12:22:23;31;30;
73973;PMS5003;62336;-26.094;27.994;2023-07-20T12:24:52;37;36;
73973;PMS5003;62336;-26.094;27.994;2023-07-20T12:27:14;34;33;
73973;PMS5003;62336;-26.094;27.994;2023-07-20T12:29:39;36;33;
73973;PMS5003;62336;-26.094;27.994;2023-07-20T12:32:05;45;39;
73973;PMS5003;62336;-26.094;27.994;2023-07-20T12:34:30;41;36;
73973;PMS5003;62336;-26.094;27.994;2023-07-20T12:36:55;32;32;
73973;PMS5003;62336;-26.094;27.994;2023-07-20T12:39:21;37;34;
73973;PMS5003;62336;-26.094;27.994;2023-07-20T12:41:48;34;34;
73973;PMS5003;62336;-26.094;27.994;2023-07-20T12:44:12;34;33;
73973;PMS5003;62336;-26.094;27.994;2023-07-20T12:46:38;32;31;
73973;PMS5003;62336;-26.094;27.994;2023-07-20T12:49:03;35;34;
73973;PMS5003;62336;-26.094;27.994;2023-07-20T12:51:28;33;32;
73973;PMS5003;62336;-26.094;27.994;2023-07-20T12:53:54;34;32;
73973;PMS5003;62336;-26.094;27.994;2023-07-20T12:56:19;40;35;
73973;PMS5003;62336;-26.094;27.994;2023-07-20T12:58:44;34;31;
73973;PMS5003;62336;-26.094;27.994;2023-07-20T13:01:09;35;35;
73973;PMS5003;62336;-26.094;27.994;2023-07-20T13:03:35;33;31;
73973;PMS5003;62336;-26.094;27.994;2023-07-20T13:06:01;33;32;
73973;PMS5003;62336;-26.094;27.994;2023-07-20T13:08:26;37;37;
73973;PMS5003;62336;-26.094;27.994;2023-07-20T13:10:52;41;39;
73973;PMS5003;62336;-26.094;27.994;2023-07-20T13:13:17;47;45;
73973;PMS5003;62336;-26.094;27.994;2023-07-20T13:15:43;42;38;
73973;PMS5003;62336;-26.094;27.994;2023-07-20T13:18:09;45;43;
73973;PMS5003;62336;-26.094;27.994;2023-07-20T13:20:34;43;40;
73973;PMS5003;62336;-26.094;27.994;2023-07-20T13:22:59;43;42;
73973;PMS5003;62336;-26.094;27.994;2023-07-20T13:25:25;41;38;
73973;PMS5003;62336;-26.094;27.994;2023-07-20T13:27:50;38;38;
73973;PMS5003;62336;-26.094;27.994;2023-07-20T13:30:16;48;47;
73973;PMS5003;62336;-26.094;27.994;2023-07-20T13:32:41;47;46;
73973;PMS5003;62336;-26.094;27.994;2023-07-20T13:35:06;45;43;
73973;PMS5003;62336;-26.094;27.994;2023-07-20T13:37:31;51;51;
73973;PMS5003;62336;-26.094;27.994;2023-07-20T13:39:57;54;50;
73973;PMS5003;62336;-26.094;27.994;2023-07-20T13:42:22;50;46;
73973;PMS5003;62336;-26.094;27.994;2023-07-20T13:44:48;49;48;
73973;PMS5003;62336;-26.094;27.994;2023-07-20T13:47:13;41;39;
73973;PMS5003;62336;-26.094;27.994;2023-07-20T13:49:39;41;37;
73973;PMS5003;62336;-26.094;27.994;2023-07-20T13:52:05;40;38;
73973;PMS5003;62336;-26.094;27.994;2023-07-20T13:54:31;41;39;
73973;PMS5003;62336;-26.094;27.994;2023-07-20T13:56:56;39;38;
73973;PMS5003;62336;-26.094;27.994;2023-07-20T13:59:22;39;39;
73973;PMS5003;62336;-26.094;27.994;2023-07-20T14:01:47;42;39;
73973;PMS5003;62336;-26.094;27.994;2023-07-20T14:04:12;43;40;
73973;PMS5003;62336;-26.094;27.994;2023-07-20T14:06:38;36;36;
73973;PMS5003;62336;-26.094;27.994;2023-07-20T14:09:03;34;32;
73973;PMS5003;62336;-26.094;27.994;2023-07-20T14:11:29;38;36;
73973;PMS5003;62336;-26.094;27.994;2023-07-20T14:13:54;35;33;
73973;PMS5003;62336;-26.094;27.994;2023-07-20T14:16:20;33;32;
73973;PMS5003;62336;-26.094;27.994;2023-07-20T14:18:46;33;31;
73973;PMS5003;62336;-26.094;27.994;2023-07-20T14:21:11;39;37;
73973;PMS5003;62336;-26.094;27.994;2023-07-20T14:23:36;36;34;
73973;PMS5003;62336;-26.094;27.994;2023-07-20T14:26:02;37;36;
73973;PMS5003;62336;-26.094;27.994;2023-07-20T14:28:27;38;33;
73973;PMS5003;62336;-26.094;27.994;2023-07-20T14:30:53;42;38;
73973;PMS5003;62336;-26.094;27.994;2023-07-20T14:33:18;36;36;
73973;PMS5003;62336;-26.094;27.994;2023-07-20T14:35:43;37;37;
73973;PMS5003;62336;-26.094;27.994;2023-07-20T14:38:08;33;32;
73973;PMS5003;62336;-26.094;27.994;2023-07-20T14:40:34;37;36;
73973;PMS5003;62336;-26.094;27.994;2023-07-20T14:43:00;38;38;
73973;PMS5003;62336;-26.094;27.994;2023-07-20T14:45:24;34;33;
73973;PMS5003;62336;-26.094;27.994;2023-07-20T14:47:50;35;34;
73973;PMS5003;62336;-26.094;27.994;2023-07-20T14:50:15;41;40;
73973;PMS5003;62336;-26.094;27.994;2023-07-20T14:52:40;43;38;
73973;PMS5003;62336;-26.094;27.994;2023-07-20T14:55:06;43;39;
73973;PMS5003;62336;-26.094;27.994;2023-07-20T14:57:32;37;36;
73973;PMS5003;62336;-26.094;27.994;2023-07-20T14:59:57;38;37;
73973;PMS5003;62336;-26.094;27.994;2023-07-20T15:02:23;42;38;
73973;PMS5003;62336;-26.094;27.994;2023-07-20T15:04:48;38;35;
73973;PMS5003;62336;-26.094;27.994;2023-07-20T15:07:15;39;38;
73973;PMS5003;62336;-26.094;27.994;2023-07-20T15:09:39;40;37;
73973;PMS5003;62336;-26.094;27.994;2023-07-20T15:12:04;39;39;
73973;PMS5003;62336;-26.094;27.994;2023-07-20T15:14:29;40;38;
73973;PMS5003;62336;-26.094;27.994;2023-07-20T15:16:54;39;36;
73973;PMS5003;62336;-26.094;27.994;2023-07-20T15:19:20;42;39;
73973;PMS5003;62336;-26.094;27.994;2023-07-20T15:21:45;36;35;
73973;PMS5003;62336;-26.094;27.994;2023-07-20T15:24:10;42;41;
73973;PMS5003;62336;-26.094;27.994;2023-07-20T15:26:36;39;37;
73973;PMS5003;62336;-26.094;27.994;2023-07-20T15:29:01;40;39;
73973;PMS5003;62336;-26.094;27.994;2023-07-20T15:31:27;39;38;
73973;PMS5003;62336;-26.094;27.994;2023-07-20T15:33:53;42;39;
73973;PMS5003;62336;-26.094;27.994;2023-07-20T15:36:18;39;38;
73973;PMS5003;62336;-26.094;27.994;2023-07-20T15:38:43;44;40;
73973;PMS5003;62336;-26.094;27.994;2023-07-20T15:41:09;41;41;
73973;PMS5003;62336;-26.094;27.994;2023-07-20T15:43:34;45;41;
73973;PMS5003;62336;-26.094;27.994;2023-07-20T15:46:04;37;37;
73973;PMS5003;62336;-26.094;27.994;2023-07-20T15:48:25;39;37;